Pagrindinis puslapis
METAR-TAF:

METAR-TAF

Oro uostai :

Cervia, Italija

platuma: 44-13N, ilguma: 012-18E, Aukštis: 6 m

Dabartinis oras

Ataskaita buvo paskelbta 38 minutes, ne 18:55 UTC
Vėjas 4 kt iš Šiaurės Vakarų
Temperatūra 17°C
Drėgmė 94%
Slėgis 1021 hPa
Matomumas 10 km arba daugiau
nėra debesų žemiau 1500 m ir nėra kamuolinių lietaus debesų

METAR: LIPC 191855Z 31004KT CAVOK 17/16 Q1021 RMK SKC VIS MIN 9999 WIND THR11 /////KT WIND THR29 31003KT BLU

Laikas: 21:33 (19:33 UTC)

Prognozė

Ataskaita buvo paskelbta 2 valandos ir 33 minutes, ne 17:00 UTC
Prognozė galioja nuo 19 metu 18 UTC su 20 metu 03 UTC
Vėjas 10 kt iš Rytų/Šiaurės Rytų
Matomumas 10 km arba daugiau
Išsisklaidę debesys ne aukštis 4000 ft
Tikimybė 30% :
Laikinai
nuo 19 metu 18 UTC su 20 metu 03 UTC
Vėjas 15 kt iš Rytų/Šiaurės Rytų su gūsio iki 28 kt

TAF: LIPC 191700Z 1918/2003 07010KT 9999 SCT040 PROB30 TEMPO 1918/2003 07015G28KT

Orai ataskaitas ir orų prognozės (METAR, TAF).

turimą stotys yra geltonos ir raudonos taškus žemėlapyje.

Perkelti pele per norėdami pamatyti stoties vardą.

Tada spustelėkite, norėdami matyti oro stebėjimo ir prognozės.

Norėdami pakeisti žemėlapį: spustelėkite ant žalios mygtukų su juodo kryžiaus žemyn,; žalią mygtuką su brūkšneliu, jei norite nutolinti; arba žalių rodyklių gretimoms žemėlapius.


METAR-TAF: